sensor_id;sensor_type;location;lat;lon;timestamp;pressure;altitude;pressure_sealevel;temperature;humidity
52489;BME280;38399;52.236;104.280;2022-10-31T00:01:24;97398.19;;;-4.33;67.26
52489;BME280;38399;52.236;104.280;2022-10-31T00:03:51;97402.63;;;-4.33;67.16
52489;BME280;38399;52.236;104.280;2022-10-31T00:06:17;97402.97;;;-4.38;67.18
52489;BME280;38399;52.236;104.280;2022-10-31T00:08:45;97406.50;;;-4.38;67.04
52489;BME280;38399;52.236;104.280;2022-10-31T00:11:11;97410.56;;;-4.33;66.94
52489;BME280;38399;52.236;104.280;2022-10-31T00:13:37;97412.03;;;-4.29;67.09
52489;BME280;38399;52.236;104.280;2022-10-31T00:16:03;97411.69;;;-4.25;66.95
52489;BME280;38399;52.236;104.280;2022-10-31T00:18:29;97412.91;;;-4.17;67.06
52489;BME280;38399;52.236;104.280;2022-10-31T00:20:59;97410.50;;;-4.09;66.89
52489;BME280;38399;52.236;104.280;2022-10-31T00:23:25;97414.25;;;-4.00;66.70
52489;BME280;38399;52.236;104.280;2022-10-31T00:25:51;97402.09;;;-3.92;66.90
52489;BME280;38399;52.236;104.280;2022-10-31T00:28:17;97412.81;;;-3.82;66.95
52489;BME280;38399;52.236;104.280;2022-10-31T00:30:43;97401.63;;;-3.74;66.95
52489;BME280;38399;52.236;104.280;2022-10-31T00:33:09;97402.69;;;-3.65;66.76
52489;BME280;38399;52.236;104.280;2022-10-31T00:35:36;97396.06;;;-3.60;66.77
52489;BME280;38399;52.236;104.280;2022-10-31T00:38:02;97385.81;;;-3.53;66.43
52489;BME280;38399;52.236;104.280;2022-10-31T00:40:28;97401.88;;;-3.43;66.67
52489;BME280;38399;52.236;104.280;2022-10-31T00:42:55;97396.50;;;-3.32;66.79
52489;BME280;38399;52.236;104.280;2022-10-31T00:45:21;97392.16;;;-3.21;66.59
52489;BME280;38399;52.236;104.280;2022-10-31T00:47:48;97392.13;;;-3.10;66.20
52489;BME280;38399;52.236;104.280;2022-10-31T00:50:14;97398.16;;;-2.97;65.47
52489;BME280;38399;52.236;104.280;2022-10-31T00:52:41;97395.69;;;-2.88;65.54
52489;BME280;38399;52.236;104.280;2022-10-31T00:55:07;97397.22;;;-2.74;65.02
52489;BME280;38399;52.236;104.280;2022-10-31T00:57:33;97403.06;;;-2.59;64.81
52489;BME280;38399;52.236;104.280;2022-10-31T00:59:59;97395.00;;;-2.37;64.14
52489;BME280;38399;52.236;104.280;2022-10-31T01:02:25;97397.69;;;-2.06;64.40
52489;BME280;38399;52.236;104.280;2022-10-31T01:04:51;97397.72;;;-1.75;62.97
52489;BME280;38399;52.236;104.280;2022-10-31T01:07:17;97401.63;;;-1.48;62.79
52489;BME280;38399;52.236;104.280;2022-10-31T01:09:43;97410.63;;;-0.29;60.98
52489;BME280;38399;52.236;104.280;2022-10-31T01:12:10;97402.06;;;0.34;59.08
52489;BME280;38399;52.236;104.280;2022-10-31T01:14:42;97409.63;;;0.49;58.66
52489;BME280;38399;52.236;104.280;2022-10-31T01:17:08;97421.19;;;0.29;58.99
52489;BME280;38399;52.236;104.280;2022-10-31T01:19:34;97417.78;;;-0.10;59.49
52489;BME280;38399;52.236;104.280;2022-10-31T01:22:00;97416.38;;;-0.54;60.63
52489;BME280;38399;52.236;104.280;2022-10-31T01:24:28;97411.44;;;-0.88;61.09
52489;BME280;38399;52.236;104.280;2022-10-31T01:26:55;97406.25;;;-0.99;62.03
52489;BME280;38399;52.236;104.280;2022-10-31T01:29:21;97400.06;;;-1.00;62.12
52489;BME280;38399;52.236;104.280;2022-10-31T01:31:47;97398.56;;;-0.73;62.08
52489;BME280;38399;52.236;104.280;2022-10-31T01:34:14;97407.72;;;0.59;60.26
52489;BME280;38399;52.236;104.280;2022-10-31T01:36:40;97395.81;;;1.81;57.14
52489;BME280;38399;52.236;104.280;2022-10-31T01:39:08;97399.19;;;2.62;55.25
52489;BME280;38399;52.236;104.280;2022-10-31T01:41:35;97393.88;;;3.30;53.75
52489;BME280;38399;52.236;104.280;2022-10-31T01:44:47;97401.00;;;2.96;54.48
52489;BME280;38399;52.236;104.280;2022-10-31T01:49:19;97403.41;;;1.86;56.52
52489;BME280;38399;52.236;104.280;2022-10-31T01:51:49;97403.72;;;1.47;57.53
52489;BME280;38399;52.236;104.280;2022-10-31T01:54:17;97402.16;;;1.08;58.67
52489;BME280;38399;52.236;104.280;2022-10-31T01:56:48;97398.41;;;0.73;59.28
52489;BME280;38399;52.236;104.280;2022-10-31T01:59:16;97409.38;;;0.42;59.51
52489;BME280;38399;52.236;104.280;2022-10-31T02:01:43;97411.78;;;0.25;60.05
52489;BME280;38399;52.236;104.280;2022-10-31T02:04:09;97402.28;;;0.13;60.21
52489;BME280;38399;52.236;104.280;2022-10-31T02:06:37;97411.56;;;0.09;60.15
52489;BME280;38399;52.236;104.280;2022-10-31T02:09:05;97407.31;;;0.16;60.23
52489;BME280;38399;52.236;104.280;2022-10-31T02:11:31;97410.94;;;0.25;60.40
52489;BME280;38399;52.236;104.280;2022-10-31T02:13:58;97396.03;;;0.42;60.08
52489;BME280;38399;52.236;104.280;2022-10-31T02:16:46;97395.06;;;0.71;60.09
52489;BME280;38399;52.236;104.280;2022-10-31T02:19:12;97395.53;;;0.84;59.67
52489;BME280;38399;52.236;104.280;2022-10-31T02:21:52;97391.50;;;0.98;59.70
52489;BME280;38399;52.236;104.280;2022-10-31T02:27:03;97382.78;;;1.60;59.23
52489;BME280;38399;52.236;104.280;2022-10-31T02:29:50;97392.03;;;2.10;59.32
52489;BME280;38399;52.236;104.280;2022-10-31T02:35:21;97386.69;;;2.79;57.60
52489;BME280;38399;52.236;104.280;2022-10-31T02:37:53;97376.72;;;2.98;57.58
52489;BME280;38399;52.236;104.280;2022-10-31T02:40:25;97376.47;;;3.26;56.89
52489;BME280;38399;52.236;104.280;2022-10-31T02:43:30;97370.25;;;3.25;56.22
52489;BME280;38399;52.236;104.280;2022-10-31T02:48:34;97379.25;;;3.00;56.69
52489;BME280;38399;52.236;104.280;2022-10-31T02:51:04;97373.56;;;3.03;56.74
52489;BME280;38399;52.236;104.280;2022-10-31T02:53:34;97370.41;;;3.16;56.84
52489;BME280;38399;52.236;104.280;2022-10-31T02:56:14;97372.13;;;3.33;56.57
52489;BME280;38399;52.236;104.280;2022-10-31T02:58:54;97367.50;;;4.58;56.55
52489;BME280;38399;52.236;104.280;2022-10-31T03:09:23;97343.75;;;16.38;38.03
52489;BME280;38399;52.236;104.280;2022-10-31T03:11:58;97340.97;;;13.98;39.73
52489;BME280;38399;52.236;104.280;2022-10-31T03:14:38;97343.72;;;11.48;44.45
52489;BME280;38399;52.236;104.280;2022-10-31T03:17:07;97342.13;;;12.55;44.91
52489;BME280;38399;52.236;104.280;2022-10-31T03:19:38;97332.91;;;16.26;39.80
52489;BME280;38399;52.236;104.280;2022-10-31T03:22:07;97323.34;;;19.93;36.34
52489;BME280;38399;52.236;104.280;2022-10-31T03:24:38;97329.16;;;21.55;33.01
52489;BME280;38399;52.236;104.280;2022-10-31T03:27:05;97322.56;;;20.08;34.03
52489;BME280;38399;52.236;104.280;2022-10-31T03:29:34;97319.00;;;18.00;36.39
52489;BME280;38399;52.236;104.280;2022-10-31T03:32:02;97316.81;;;15.66;37.56
52489;BME280;38399;52.236;104.280;2022-10-31T03:34:33;97311.94;;;14.15;41.00
52489;BME280;38399;52.236;104.280;2022-10-31T03:37:02;97304.88;;;15.72;43.56
52489;BME280;38399;52.236;104.280;2022-10-31T03:39:31;97297.13;;;19.59;36.68
52489;BME280;38399;52.236;104.280;2022-10-31T03:42:20;97296.25;;;22.78;32.14
52489;BME280;38399;52.236;104.280;2022-10-31T03:44:50;97295.53;;;25.44;30.00
52489;BME280;38399;52.236;104.280;2022-10-31T03:47:19;97278.44;;;27.01;27.36
52489;BME280;38399;52.236;104.280;2022-10-31T03:49:47;97280.28;;;27.72;27.73
52489;BME280;38399;52.236;104.280;2022-10-31T03:54:44;97280.31;;;29.68;27.13
52489;BME280;38399;52.236;104.280;2022-10-31T03:57:16;97275.75;;;29.84;26.37
52489;BME280;38399;52.236;104.280;2022-10-31T03:59:48;97277.53;;;30.10;26.34
52489;BME280;38399;52.236;104.280;2022-10-31T04:02:16;97275.28;;;30.24;26.96
52489;BME280;38399;52.236;104.280;2022-10-31T04:04:43;97276.88;;;30.47;25.45
52489;BME280;38399;52.236;104.280;2022-10-31T04:07:11;97264.03;;;30.79;25.26
52489;BME280;38399;52.236;104.280;2022-10-31T04:09:39;97269.13;;;30.52;23.55
52489;BME280;38399;52.236;104.280;2022-10-31T04:12:08;97270.06;;;30.02;24.28
52489;BME280;38399;52.236;104.280;2022-10-31T04:14:36;97265.19;;;30.32;24.37
52489;BME280;38399;52.236;104.280;2022-10-31T04:17:07;97261.97;;;31.01;23.43
52489;BME280;38399;52.236;104.280;2022-10-31T04:19:39;97252.25;;;30.61;23.89
52489;BME280;38399;52.236;104.280;2022-10-31T04:22:06;97259.78;;;29.85;24.17
52489;BME280;38399;52.236;104.280;2022-10-31T04:24:32;97260.91;;;29.71;24.68
52489;BME280;38399;52.236;104.280;2022-10-31T04:26:58;97254.25;;;30.39;23.88
52489;BME280;38399;52.236;104.280;2022-10-31T04:29:25;97245.94;;;30.64;23.75
52489;BME280;38399;52.236;104.280;2022-10-31T04:31:52;97246.13;;;30.93;23.56
52489;BME280;38399;52.236;104.280;2022-10-31T04:34:19;97243.91;;;31.11;23.83
52489;BME280;38399;52.236;104.280;2022-10-31T04:36:45;97228.53;;;31.29;23.42
52489;BME280;38399;52.236;104.280;2022-10-31T04:39:13;97227.69;;;31.29;22.95
52489;BME280;38399;52.236;104.280;2022-10-31T04:41:47;97226.97;;;31.57;22.55
52489;BME280;38399;52.236;104.280;2022-10-31T04:44:14;97226.16;;;31.56;22.24
52489;BME280;38399;52.236;104.280;2022-10-31T04:46:40;97222.19;;;31.57;21.41
52489;BME280;38399;52.236;104.280;2022-10-31T04:49:08;97212.53;;;31.30;22.59
52489;BME280;38399;52.236;104.280;2022-10-31T04:51:35;97212.16;;;29.81;23.55
52489;BME280;38399;52.236;104.280;2022-10-31T04:54:02;97208.50;;;27.69;24.39
52489;BME280;38399;52.236;104.280;2022-10-31T04:56:46;97218.28;;;24.01;28.45
52489;BME280;38399;52.236;104.280;2022-10-31T04:59:18;97214.50;;;20.73;28.86
52489;BME280;38399;52.236;104.280;2022-10-31T05:01:49;97210.53;;;17.92;30.97
52489;BME280;38399;52.236;104.280;2022-10-31T05:04:18;97218.41;;;15.66;36.21
52489;BME280;38399;52.236;104.280;2022-10-31T05:06:44;97207.25;;;13.93;36.88
52489;BME280;38399;52.236;104.280;2022-10-31T05:09:10;97206.03;;;12.24;37.15
52489;BME280;38399;52.236;104.280;2022-10-31T05:11:37;97207.81;;;11.04;39.27
52489;BME280;38399;52.236;104.280;2022-10-31T05:14:23;97200.50;;;9.93;40.67
52489;BME280;38399;52.236;104.280;2022-10-31T05:17:07;97196.97;;;9.12;40.57
52489;BME280;38399;52.236;104.280;2022-10-31T05:19:53;97193.28;;;8.51;41.04
52489;BME280;38399;52.236;104.280;2022-10-31T05:22:47;97182.28;;;8.11;41.55
52489;BME280;38399;52.236;104.280;2022-10-31T05:25:15;97182.75;;;7.86;42.18
52489;BME280;38399;52.236;104.280;2022-10-31T05:27:42;97190.47;;;7.61;41.79
52489;BME280;38399;52.236;104.280;2022-10-31T05:30:09;97187.03;;;7.74;41.62
52489;BME280;38399;52.236;104.280;2022-10-31T05:32:37;97186.41;;;7.72;41.31
52489;BME280;38399;52.236;104.280;2022-10-31T05:35:32;97178.16;;;7.52;40.81
52489;BME280;38399;52.236;104.280;2022-10-31T05:38:20;97170.28;;;7.00;40.98
52489;BME280;38399;52.236;104.280;2022-10-31T05:40:47;97167.09;;;6.53;41.32
52489;BME280;38399;52.236;104.280;2022-10-31T05:43:14;97160.47;;;6.19;41.92
52489;BME280;38399;52.236;104.280;2022-10-31T05:45:41;97147.66;;;6.21;41.61
52489;BME280;38399;52.236;104.280;2022-10-31T05:48:19;97153.03;;;6.21;41.04
52489;BME280;38399;52.236;104.280;2022-10-31T05:51:04;97145.81;;;6.06;40.99
52489;BME280;38399;52.236;104.280;2022-10-31T05:53:31;97147.66;;;5.91;40.95
52489;BME280;38399;52.236;104.280;2022-10-31T05:55:57;97144.50;;;5.87;41.21
52489;BME280;38399;52.236;104.280;2022-10-31T05:58:24;97145.81;;;5.76;41.08
52489;BME280;38399;52.236;104.280;2022-10-31T06:01:04;97145.25;;;5.51;41.17
52489;BME280;38399;52.236;104.280;2022-10-31T06:03:32;97149.38;;;5.24;41.15
52489;BME280;38399;52.236;104.280;2022-10-31T06:06:00;97140.94;;;5.12;41.50
52489;BME280;38399;52.236;104.280;2022-10-31T06:08:35;97136.75;;;5.24;41.42
52489;BME280;38399;52.236;104.280;2022-10-31T06:11:04;97144.31;;;5.29;41.15
52489;BME280;38399;52.236;104.280;2022-10-31T06:13:50;97141.88;;;5.19;40.90
52489;BME280;38399;52.236;104.280;2022-10-31T06:16:24;97137.28;;;5.05;41.23
52489;BME280;38399;52.236;104.280;2022-10-31T06:18:51;97137.63;;;4.87;41.00
52489;BME280;38399;52.236;104.280;2022-10-31T06:21:18;97132.59;;;4.60;41.48
52489;BME280;38399;52.236;104.280;2022-10-31T06:23:44;97132.00;;;4.50;41.32
52489;BME280;38399;52.236;104.280;2022-10-31T06:26:39;97128.22;;;4.36;41.46
52489;BME280;38399;52.236;104.280;2022-10-31T06:29:07;97124.00;;;4.42;41.34
52489;BME280;38399;52.236;104.280;2022-10-31T06:31:54;97121.31;;;4.42;41.34
52489;BME280;38399;52.236;104.280;2022-10-31T06:34:21;97125.13;;;4.47;41.11
52489;BME280;38399;52.236;104.280;2022-10-31T06:36:47;97123.03;;;4.34;41.33
52489;BME280;38399;52.236;104.280;2022-10-31T06:39:14;97117.75;;;4.18;41.65
52489;BME280;38399;52.236;104.280;2022-10-31T06:41:40;97119.66;;;4.09;41.79
52489;BME280;38399;52.236;104.280;2022-10-31T06:44:09;97125.31;;;4.14;41.61
52489;BME280;38399;52.236;104.280;2022-10-31T06:46:50;97117.19;;;3.99;41.54
52489;BME280;38399;52.236;104.280;2022-10-31T06:49:35;97118.75;;;3.85;41.97
52489;BME280;38399;52.236;104.280;2022-10-31T06:52:09;97109.31;;;3.66;41.90
52489;BME280;38399;52.236;104.280;2022-10-31T06:54:36;97110.66;;;3.62;42.21
52489;BME280;38399;52.236;104.280;2022-10-31T06:57:02;97104.78;;;3.58;42.13
52489;BME280;38399;52.236;104.280;2022-10-31T06:59:28;97106.63;;;3.58;42.44
52489;BME280;38399;52.236;104.280;2022-10-31T07:02:13;97112.22;;;3.40;42.30
52489;BME280;38399;52.236;104.280;2022-10-31T07:04:41;97107.94;;;3.22;42.68
52489;BME280;38399;52.236;104.280;2022-10-31T07:07:08;97106.94;;;2.99;42.93
52489;BME280;38399;52.236;104.280;2022-10-31T07:09:35;97113.00;;;2.68;43.18
52489;BME280;38399;52.236;104.280;2022-10-31T07:12:05;97104.13;;;2.59;43.33
52489;BME280;38399;52.236;104.280;2022-10-31T07:14:35;97107.47;;;2.69;43.34
52489;BME280;38399;52.236;104.280;2022-10-31T07:17:01;97100.94;;;2.80;43.34
52489;BME280;38399;52.236;104.280;2022-10-31T07:19:34;97097.22;;;2.98;43.25
52489;BME280;38399;52.236;104.280;2022-10-31T07:22:01;97089.53;;;3.11;43.08
52489;BME280;38399;52.236;104.280;2022-10-31T07:24:28;97096.34;;;3.22;42.89
52489;BME280;38399;52.236;104.280;2022-10-31T07:27:14;97098.38;;;3.28;42.51
52489;BME280;38399;52.236;104.280;2022-10-31T07:29:42;97090.81;;;3.23;42.61
52489;BME280;38399;52.236;104.280;2022-10-31T07:32:07;97092.88;;;3.13;42.77
52489;BME280;38399;52.236;104.280;2022-10-31T07:34:37;97086.34;;;2.99;43.05
52489;BME280;38399;52.236;104.280;2022-10-31T07:37:21;97088.53;;;2.95;43.01
52489;BME280;38399;52.236;104.280;2022-10-31T07:39:47;97085.34;;;3.00;43.20
52489;BME280;38399;52.236;104.280;2022-10-31T07:42:13;97085.50;;;3.07;43.27
52489;BME280;38399;52.236;104.280;2022-10-31T07:44:43;97080.81;;;3.09;43.35
52489;BME280;38399;52.236;104.280;2022-10-31T07:47:45;97080.81;;;3.09;43.30
52489;BME280;38399;52.236;104.280;2022-10-31T07:50:31;97080.63;;;3.10;43.32
52489;BME280;38399;52.236;104.280;2022-10-31T07:53:18;97079.16;;;3.00;43.58
52489;BME280;38399;52.236;104.280;2022-10-31T07:56:11;97091.38;;;2.94;43.51
52489;BME280;38399;52.236;104.280;2022-10-31T07:58:37;97089.22;;;2.89;43.75
52489;BME280;38399;52.236;104.280;2022-10-31T08:01:03;97086.53;;;2.89;43.51
52489;BME280;38399;52.236;104.280;2022-10-31T08:03:38;97083.84;;;2.89;43.65
52489;BME280;38399;52.236;104.280;2022-10-31T08:06:23;97088.38;;;2.89;43.74
52489;BME280;38399;52.236;104.280;2022-10-31T08:09:10;97089.72;;;2.85;43.66
52489;BME280;38399;52.236;104.280;2022-10-31T08:11:36;97087.22;;;2.83;43.85
52489;BME280;38399;52.236;104.280;2022-10-31T08:14:02;97087.22;;;2.83;44.17
52489;BME280;38399;52.236;104.280;2022-10-31T08:16:29;97084.88;;;2.80;43.90
52489;BME280;38399;52.236;104.280;2022-10-31T08:19:00;97075.97;;;2.79;44.02
52489;BME280;38399;52.236;104.280;2022-10-31T08:21:28;97077.16;;;2.77;44.20
52489;BME280;38399;52.236;104.280;2022-10-31T08:23:55;97074.16;;;2.72;44.20
52489;BME280;38399;52.236;104.280;2022-10-31T08:26:30;97080.84;;;2.68;44.43
52489;BME280;38399;52.236;104.280;2022-10-31T08:28:57;97077.19;;;2.60;44.35
52489;BME280;38399;52.236;104.280;2022-10-31T08:31:28;97078.50;;;2.56;44.82
52489;BME280;38399;52.236;104.280;2022-10-31T08:34:12;97079.88;;;2.44;44.48
52489;BME280;38399;52.236;104.280;2022-10-31T08:36:58;97083.19;;;2.38;44.92
52489;BME280;38399;52.236;104.280;2022-10-31T08:39:32;97074.34;;;2.29;45.09
52489;BME280;38399;52.236;104.280;2022-10-31T08:41:59;97074.16;;;2.22;45.17
52489;BME280;38399;52.236;104.280;2022-10-31T08:44:24;97073.78;;;2.09;45.14
52489;BME280;38399;52.236;104.280;2022-10-31T08:46:51;97069.09;;;2.02;45.31
52489;BME280;38399;52.236;104.280;2022-10-31T08:49:17;97076.28;;;2.02;45.52
52489;BME280;38399;52.236;104.280;2022-10-31T08:51:47;97071.09;;;1.92;45.80
52489;BME280;38399;52.236;104.280;2022-10-31T08:54:13;97067.53;;;1.83;45.96
52489;BME280;38399;52.236;104.280;2022-10-31T08:56:54;97076.06;;;1.79;45.83
52489;BME280;38399;52.236;104.280;2022-10-31T08:59:32;97073.72;;;1.76;46.09
52489;BME280;38399;52.236;104.280;2022-10-31T09:02:17;97072.69;;;1.68;45.94
52489;BME280;38399;52.236;104.280;2022-10-31T09:04:43;97074.34;;;1.61;46.01
52489;BME280;38399;52.236;104.280;2022-10-31T09:07:10;97075.00;;;1.55;45.92
52489;BME280;38399;52.236;104.280;2022-10-31T09:09:37;97072.13;;;1.48;46.05
52489;BME280;38399;52.236;104.280;2022-10-31T09:12:03;97068.25;;;1.43;46.06
52489;BME280;38399;52.236;104.280;2022-10-31T09:14:50;97075.91;;;1.37;46.31
52489;BME280;38399;52.236;104.280;2022-10-31T09:17:27;97079.41;;;1.30;46.58
52489;BME280;38399;52.236;104.280;2022-10-31T09:20:13;97081.34;;;1.19;46.73
52489;BME280;38399;52.236;104.280;2022-10-31T09:22:39;97085.47;;;1.14;46.73
52489;BME280;38399;52.236;104.280;2022-10-31T09:25:05;97084.28;;;1.08;46.80
52489;BME280;38399;52.236;104.280;2022-10-31T09:27:31;97084.75;;;1.03;46.82
52489;BME280;38399;52.236;104.280;2022-10-31T09:29:58;97090.09;;;1.03;47.21
52489;BME280;38399;52.236;104.280;2022-10-31T09:32:25;97092.38;;;0.98;47.31
52489;BME280;38399;52.236;104.280;2022-10-31T09:34:51;97088.16;;;0.87;47.76
52489;BME280;38399;52.236;104.280;2022-10-31T09:37:19;97085.59;;;0.77;47.79
52489;BME280;38399;52.236;104.280;2022-10-31T09:39:45;97087.06;;;0.72;48.02
52489;BME280;38399;52.236;104.280;2022-10-31T09:50:36;97088.78;;;0.37;48.78
52489;BME280;38399;52.236;104.280;2022-10-31T09:53:27;97093.75;;;0.32;48.95
52489;BME280;38399;52.236;104.280;2022-10-31T09:55:58;97097.56;;;0.29;48.88
52489;BME280;38399;52.236;104.280;2022-10-31T09:58:29;97093.66;;;0.23;49.18
52489;BME280;38399;52.236;104.280;2022-10-31T10:00:58;97092.13;;;0.21;49.51
52489;BME280;38399;52.236;104.280;2022-10-31T10:03:39;97090.06;;;0.14;49.64
52489;BME280;38399;52.236;104.280;2022-10-31T10:06:31;97093.38;;;0.08;49.65
52489;BME280;38399;52.236;104.280;2022-10-31T10:09:20;97092.97;;;0.03;49.78
52489;BME280;38399;52.236;104.280;2022-10-31T10:14:46;97092.88;;;-0.05;49.91
52489;BME280;38399;52.236;104.280;2022-10-31T10:24:55;97090.34;;;-0.25;50.30
52489;BME280;38399;52.236;104.280;2022-10-31T10:27:44;97092.47;;;-0.28;50.61
52489;BME280;38399;52.236;104.280;2022-10-31T10:30:14;97095.88;;;-0.36;50.54
52489;BME280;38399;52.236;104.280;2022-10-31T10:32:44;97088.31;;;-0.41;50.49
52489;BME280;38399;52.236;104.280;2022-10-31T10:37:41;97084.59;;;-0.48;50.78
52489;BME280;38399;52.236;104.280;2022-10-31T10:40:13;97089.63;;;-0.45;50.90
52489;BME280;38399;52.236;104.280;2022-10-31T10:42:44;97092.75;;;-0.50;50.96
52489;BME280;38399;52.236;104.280;2022-10-31T10:45:30;97089.13;;;-0.58;50.96
52489;BME280;38399;52.236;104.280;2022-10-31T10:48:15;97085.91;;;-0.62;51.11
52489;BME280;38399;52.236;104.280;2022-10-31T10:50:44;97088.03;;;-0.66;51.07
52489;BME280;38399;52.236;104.280;2022-10-31T10:59:03;97100.13;;;-0.71;51.22
52489;BME280;38399;52.236;104.280;2022-10-31T11:01:29;97099.56;;;-0.75;51.04
52489;BME280;38399;52.236;104.280;2022-10-31T11:03:56;97102.38;;;-0.76;51.31
52489;BME280;38399;52.236;104.280;2022-10-31T11:06:22;97097.34;;;-0.80;51.20
52489;BME280;38399;52.236;104.280;2022-10-31T11:08:52;97095.97;;;-0.84;51.12
52489;BME280;38399;52.236;104.280;2022-10-31T11:13:55;97091.91;;;-0.88;51.35
52489;BME280;38399;52.236;104.280;2022-10-31T11:18:51;97102.53;;;-0.88;51.12
52489;BME280;38399;52.236;104.280;2022-10-31T11:21:21;97110.84;;;-0.91;51.46
52489;BME280;38399;52.236;104.280;2022-10-31T11:23:49;97102.16;;;-0.93;51.12
52489;BME280;38399;52.236;104.280;2022-10-31T11:26:18;97107.75;;;-0.96;51.48
52489;BME280;38399;52.236;104.280;2022-10-31T11:28:55;97105.41;;;-0.99;51.51
52489;BME280;38399;52.236;104.280;2022-10-31T11:31:22;97102.75;;;-0.99;51.24
52489;BME280;38399;52.236;104.280;2022-10-31T11:33:49;97102.88;;;-1.01;51.46
52489;BME280;38399;52.236;104.280;2022-10-31T11:36:23;97103.03;;;-1.02;51.55
52489;BME280;38399;52.236;104.280;2022-10-31T11:38:50;97103.31;;;-1.05;51.30
52489;BME280;38399;52.236;104.280;2022-10-31T11:41:18;97106.94;;;-1.06;51.62
52489;BME280;38399;52.236;104.280;2022-10-31T11:43:50;97109.59;;;-1.06;51.22
52489;BME280;38399;52.236;104.280;2022-10-31T11:46:29;97111.44;;;-1.07;51.27
52489;BME280;38399;52.236;104.280;2022-10-31T11:48:57;97108.34;;;-1.12;51.42
52489;BME280;38399;52.236;104.280;2022-10-31T11:51:26;97111.47;;;-1.17;51.21
52489;BME280;38399;52.236;104.280;2022-10-31T11:53:55;97109.22;;;-1.21;51.36
52489;BME280;38399;52.236;104.280;2022-10-31T11:56:22;97109.53;;;-1.24;51.30
52489;BME280;38399;52.236;104.280;2022-10-31T11:59:01;97112.31;;;-1.26;51.40
52489;BME280;38399;52.236;104.280;2022-10-31T12:01:28;97108.28;;;-1.30;51.55
52489;BME280;38399;52.236;104.280;2022-10-31T12:04:10;97117.41;;;-1.33;51.34
52489;BME280;38399;52.236;104.280;2022-10-31T12:06:38;97113.16;;;-1.35;51.31
52489;BME280;38399;52.236;104.280;2022-10-31T12:09:19;97117.81;;;-1.37;51.41
52489;BME280;38399;52.236;104.280;2022-10-31T12:17:22;97115.00;;;-1.46;51.33
52489;BME280;38399;52.236;104.280;2022-10-31T12:25:12;97116.28;;;-1.60;51.50
52489;BME280;38399;52.236;104.280;2022-10-31T12:28:03;97122.56;;;-1.61;51.46
52489;BME280;38399;52.236;104.280;2022-10-31T12:33:34;97120.06;;;-1.62;51.59
52489;BME280;38399;52.236;104.280;2022-10-31T12:36:21;97123.56;;;-1.62;51.52
52489;BME280;38399;52.236;104.280;2022-10-31T12:41:20;97126.78;;;-1.68;51.51
52489;BME280;38399;52.236;104.280;2022-10-31T12:56:42;97129.72;;;-1.81;51.66
52489;BME280;38399;52.236;104.280;2022-10-31T13:02:00;97128.59;;;-1.88;51.49
52489;BME280;38399;52.236;104.280;2022-10-31T13:04:36;97123.56;;;-1.91;51.63
52489;BME280;38399;52.236;104.280;2022-10-31T13:07:07;97130.97;;;-1.95;51.47
52489;BME280;38399;52.236;104.280;2022-10-31T13:12:20;97136.56;;;-1.98;51.49
52489;BME280;38399;52.236;104.280;2022-10-31T13:14:57;97132.34;;;-2.00;51.40
52489;BME280;38399;52.236;104.280;2022-10-31T13:17:33;97136.69;;;-1.99;51.35
52489;BME280;38399;52.236;104.280;2022-10-31T13:22:44;97139.88;;;-2.06;51.64
52489;BME280;38399;52.236;104.280;2022-10-31T13:25:19;97125.78;;;-2.06;51.39
52489;BME280;38399;52.236;104.280;2022-10-31T13:27:58;97134.88;;;-2.09;51.65
52489;BME280;38399;52.236;104.280;2022-10-31T13:30:26;97134.88;;;-2.09;51.47
52489;BME280;38399;52.236;104.280;2022-10-31T13:33:08;97131.50;;;-2.11;51.48
52489;BME280;38399;52.236;104.280;2022-10-31T13:40:56;97138.19;;;-2.16;51.65
52489;BME280;38399;52.236;104.280;2022-10-31T13:45:54;97129.66;;;-2.20;51.72
52489;BME280;38399;52.236;104.280;2022-10-31T13:50:58;97132.59;;;-2.23;51.60
52489;BME280;38399;52.236;104.280;2022-10-31T13:58:35;97143.06;;;-2.31;51.60
52489;BME280;38399;52.236;104.280;2022-10-31T14:01:22;97148.63;;;-2.35;51.62
52489;BME280;38399;52.236;104.280;2022-10-31T14:06:43;97149.75;;;-2.37;51.96
52489;BME280;38399;52.236;104.280;2022-10-31T14:09:19;97154.50;;;-2.41;51.90
52489;BME280;38399;52.236;104.280;2022-10-31T14:11:46;97150.16;;;-2.42;51.72
52489;BME280;38399;52.236;104.280;2022-10-31T14:14:13;97159.94;;;-2.42;51.97
52489;BME280;38399;52.236;104.280;2022-10-31T14:16:40;97162.59;;;-2.42;51.85
52489;BME280;38399;52.236;104.280;2022-10-31T14:19:16;97164.16;;;-2.40;51.68
52489;BME280;38399;52.236;104.280;2022-10-31T14:21:44;97157.00;;;-2.39;52.01
52489;BME280;38399;52.236;104.280;2022-10-31T14:24:15;97150.41;;;-2.45;51.72
52489;BME280;38399;52.236;104.280;2022-10-31T14:27:03;97158.94;;;-2.51;51.93
52489;BME280;38399;52.236;104.280;2022-10-31T14:29:29;97163.09;;;-2.58;51.89
52489;BME280;38399;52.236;104.280;2022-10-31T14:31:58;97165.03;;;-2.60;52.07
52489;BME280;38399;52.236;104.280;2022-10-31T14:39:33;97161.97;;;-2.66;52.21
52489;BME280;38399;52.236;104.280;2022-10-31T14:44:44;97164.16;;;-2.71;52.06
52489;BME280;38399;52.236;104.280;2022-10-31T14:52:15;97163.00;;;-2.78;52.33
52489;BME280;38399;52.236;104.280;2022-10-31T14:54:44;97158.53;;;-2.77;52.21
52489;BME280;38399;52.236;104.280;2022-10-31T14:57:22;97163.44;;;-2.73;52.29
52489;BME280;38399;52.236;104.280;2022-10-31T14:59:50;97170.91;;;-2.67;52.08
52489;BME280;38399;52.236;104.280;2022-10-31T15:02:31;97166.72;;;-2.59;52.13
52489;BME280;38399;52.236;104.280;2022-10-31T15:05:08;97163.53;;;-2.53;52.05
52489;BME280;38399;52.236;104.280;2022-10-31T15:07:35;97163.13;;;-2.48;51.87
52489;BME280;38399;52.236;104.280;2022-10-31T15:10:05;97169.41;;;-2.50;51.90